createdAt,value
2023-01-12T00:00:31.645Z,20.28
2023-01-12T00:01:32.256Z,20.31
2023-01-12T00:02:33.751Z,20.21
2023-01-12T00:03:34.369Z,20.19
2023-01-12T00:04:35.029Z,20.16
2023-01-12T00:05:35.620Z,20.14
2023-01-12T00:06:36.376Z,20.07
2023-01-12T00:07:36.971Z,20.11
2023-01-12T00:08:37.571Z,20.09
2023-01-12T00:09:38.243Z,20.06
2023-01-12T00:10:38.848Z,20.04
2023-01-12T00:11:39.442Z,20.03
2023-01-12T00:12:40.897Z,19.95
2023-01-12T00:13:41.585Z,19.89
2023-01-12T00:14:42.214Z,20.00
2023-01-12T00:15:42.827Z,19.99
2023-01-12T00:16:43.523Z,19.89
2023-01-12T00:17:44.973Z,20.02
2023-01-12T00:18:45.572Z,19.94
2023-01-12T00:19:46.168Z,19.91
2023-01-12T00:20:46.769Z,19.92
2023-01-12T00:21:47.432Z,19.86
2023-01-12T00:22:48.034Z,19.88
2023-01-12T00:23:48.630Z,19.85
2023-01-12T00:24:49.258Z,19.79
2023-01-12T00:25:49.928Z,19.81
2023-01-12T00:26:50.530Z,19.81
2023-01-12T00:27:51.194Z,19.76
2023-01-12T00:28:51.799Z,19.81
2023-01-12T00:29:52.406Z,19.74
2023-01-12T00:30:53.090Z,19.73
2023-01-12T00:31:53.818Z,19.73
2023-01-12T00:32:54.544Z,19.71
2023-01-12T00:33:55.125Z,19.73
2023-01-12T00:34:55.728Z,19.74
2023-01-12T00:35:56.372Z,19.69
2023-01-12T00:36:56.979Z,19.69
2023-01-12T00:37:57.565Z,19.59
2023-01-12T00:38:58.171Z,19.58
2023-01-12T00:40:02.445Z,19.66
2023-01-12T00:41:00.357Z,19.59
2023-01-12T00:42:00.955Z,19.62
2023-01-12T00:43:01.550Z,19.54
2023-01-12T00:44:02.147Z,19.58
2023-01-12T00:45:02.766Z,19.55
2023-01-12T00:46:03.413Z,19.47
2023-01-12T00:47:04.007Z,19.51
2023-01-12T00:48:04.608Z,19.49
2023-01-12T00:49:05.259Z,19.54
2023-01-12T00:50:05.851Z,19.51
2023-01-12T00:51:06.450Z,19.48
2023-01-12T00:52:07.647Z,19.49
2023-01-12T00:53:08.741Z,19.47
2023-01-12T00:54:09.333Z,19.44
2023-01-12T00:55:09.941Z,19.45
2023-01-12T00:56:10.545Z,19.48
2023-01-12T00:57:11.139Z,19.47
2023-01-12T00:58:11.733Z,19.45
2023-01-12T00:59:12.337Z,19.41
2023-01-12T01:00:12.936Z,19.47
2023-01-12T01:01:13.603Z,19.37
2023-01-12T01:02:14.297Z,19.40
2023-01-12T01:03:14.938Z,19.41
2023-01-12T01:04:15.542Z,19.41
2023-01-12T01:05:16.141Z,19.33
2023-01-12T01:06:17.575Z,19.29
2023-01-12T01:07:18.180Z,19.39
2023-01-12T01:08:18.785Z,19.30
2023-01-12T01:09:19.453Z,19.31
2023-01-12T01:10:20.059Z,19.33
2023-01-12T01:11:20.646Z,19.27
2023-01-12T01:12:21.249Z,19.26
2023-01-12T01:13:21.849Z,19.26
2023-01-12T01:14:22.444Z,19.27
2023-01-12T01:15:23.047Z,19.16
2023-01-12T01:16:23.642Z,19.21
2023-01-12T01:17:24.245Z,19.22
2023-01-12T01:18:24.839Z,19.30
2023-01-12T01:19:25.441Z,19.27
2023-01-12T01:20:26.037Z,19.26
2023-01-12T01:21:26.636Z,19.22
2023-01-12T01:22:27.232Z,19.19
2023-01-12T01:23:27.834Z,19.18
2023-01-12T01:24:28.432Z,19.24
2023-01-12T01:25:29.032Z,19.16
2023-01-12T01:26:29.633Z,19.15
2023-01-12T01:27:30.224Z,19.19
2023-01-12T01:28:30.834Z,19.27
2023-01-12T01:29:31.434Z,19.19
2023-01-12T01:30:32.020Z,19.21
2023-01-12T01:31:32.650Z,19.19
2023-01-12T01:32:33.249Z,19.14
2023-01-12T01:33:33.858Z,19.16
2023-01-12T01:34:34.586Z,19.18
2023-01-12T01:35:35.989Z,19.14
2023-01-12T01:36:36.581Z,19.11
2023-01-12T01:37:37.203Z,19.19
2023-01-12T01:38:37.841Z,19.12
2023-01-12T01:39:38.437Z,19.15
2023-01-12T01:40:39.031Z,19.15
2023-01-12T01:41:42.804Z,19.09
2023-01-12T01:42:42.076Z,19.11
2023-01-12T01:43:42.679Z,18.98
2023-01-12T01:44:43.273Z,19.12
2023-01-12T01:45:43.879Z,19.12
2023-01-12T01:46:44.503Z,19.09
2023-01-12T01:47:45.121Z,19.07
2023-01-12T01:48:45.720Z,19.14
2023-01-12T01:49:46.334Z,19.08
2023-01-12T01:50:46.925Z,19.08
2023-01-12T01:51:48.331Z,19.09
2023-01-12T01:52:48.941Z,18.98
2023-01-12T01:53:49.528Z,19.08
2023-01-12T01:54:50.949Z,19.02
2023-01-12T01:55:51.586Z,18.96
2023-01-12T01:56:52.175Z,19.00
2023-01-12T01:57:52.789Z,19.00
2023-01-12T01:58:53.372Z,18.99
2023-01-12T01:59:54.893Z,18.99
2023-01-12T02:00:55.594Z,18.90
2023-01-12T02:01:56.221Z,18.88
2023-01-12T02:02:56.852Z,18.88
2023-01-12T02:03:57.453Z,18.96
2023-01-12T02:04:58.044Z,18.98
2023-01-12T02:05:58.649Z,18.93
2023-01-12T02:06:59.241Z,18.98
2023-01-12T02:07:59.874Z,18.92
2023-01-12T02:09:00.473Z,18.99
2023-01-12T02:10:01.131Z,18.92
2023-01-12T02:11:01.712Z,18.92
2023-01-12T02:12:02.314Z,18.95
2023-01-12T02:13:02.905Z,18.93
2023-01-12T02:14:03.510Z,18.88
2023-01-12T02:15:04.105Z,18.93
2023-01-12T02:16:04.764Z,18.89
2023-01-12T02:17:05.377Z,18.92
2023-01-12T02:18:05.979Z,18.84
2023-01-12T02:19:06.581Z,18.92
2023-01-12T02:20:07.175Z,18.86
2023-01-12T02:21:07.768Z,18.88
2023-01-12T02:22:08.390Z,18.84
2023-01-12T02:23:08.976Z,18.86
2023-01-12T02:24:09.576Z,18.74
2023-01-12T02:25:10.174Z,18.78
2023-01-12T02:26:10.835Z,18.84
2023-01-12T02:27:11.432Z,18.88
2023-01-12T02:28:12.033Z,18.77
2023-01-12T02:29:12.630Z,18.83
2023-01-12T02:30:13.237Z,18.90
2023-01-12T02:31:13.906Z,18.75
2023-01-12T02:32:14.504Z,18.78
2023-01-12T02:33:15.098Z,18.80
2023-01-12T02:34:15.707Z,18.77
2023-01-12T02:35:16.376Z,18.80
2023-01-12T02:36:17.035Z,18.77
2023-01-12T02:37:17.926Z,18.78
2023-01-12T02:38:18.531Z,18.77
2023-01-12T02:39:19.179Z,18.73
2023-01-12T02:40:19.782Z,18.78
2023-01-12T02:41:20.369Z,18.73
2023-01-12T02:42:20.972Z,18.74
2023-01-12T02:43:21.567Z,18.80
2023-01-12T02:44:22.171Z,18.73
2023-01-12T02:45:22.766Z,18.75
2023-01-12T02:46:23.555Z,18.78
2023-01-12T02:47:24.183Z,18.71
2023-01-12T02:49:08.267Z,18.74
2023-01-12T02:50:08.847Z,18.70
2023-01-12T02:51:09.466Z,18.66
2023-01-12T02:52:10.904Z,18.74
2023-01-12T02:53:11.550Z,18.74
2023-01-12T02:54:12.156Z,18.75
2023-01-12T02:55:12.745Z,18.74
2023-01-12T02:56:13.336Z,18.71
2023-01-12T02:57:13.940Z,18.63
2023-01-12T02:58:14.538Z,18.63
2023-01-12T02:59:15.140Z,18.73
2023-01-12T03:00:16.604Z,18.74
2023-01-12T03:01:17.296Z,18.66
2023-01-12T03:02:17.925Z,18.66
2023-01-12T03:03:18.549Z,18.66
2023-01-12T03:04:19.187Z,18.71
2023-01-12T03:05:19.797Z,18.65
2023-01-12T03:06:20.388Z,18.62
2023-01-12T03:07:21.052Z,18.70
2023-01-12T03:08:21.645Z,18.62
2023-01-12T03:09:22.253Z,18.56
2023-01-12T03:10:22.842Z,18.60
2023-01-12T03:11:23.444Z,18.66
2023-01-12T03:12:24.041Z,18.60
2023-01-12T03:13:24.639Z,18.66
2023-01-12T03:14:25.235Z,18.68
2023-01-12T03:15:25.839Z,18.70
2023-01-12T03:16:26.458Z,18.60
2023-01-12T03:17:27.057Z,18.60
2023-01-12T03:18:27.711Z,18.63
2023-01-12T03:19:28.313Z,18.62
2023-01-12T03:20:28.993Z,18.59
2023-01-12T03:21:29.580Z,18.70
2023-01-12T03:22:30.179Z,18.66
2023-01-12T03:23:30.778Z,18.59
2023-01-12T03:24:31.373Z,18.63
2023-01-12T03:25:31.976Z,18.55
2023-01-12T03:26:32.640Z,18.60
2023-01-12T03:27:33.247Z,18.63
2023-01-12T03:28:33.839Z,18.59
2023-01-12T03:29:34.446Z,18.65
2023-01-12T03:30:35.894Z,18.62
2023-01-12T03:31:36.522Z,18.66
2023-01-12T03:32:37.115Z,18.66
2023-01-12T03:33:37.713Z,18.66
2023-01-12T03:34:38.308Z,18.62
2023-01-12T03:35:38.914Z,18.58
2023-01-12T03:36:39.504Z,18.50
2023-01-12T03:37:40.107Z,18.56
2023-01-12T03:38:40.704Z,18.56
2023-01-12T03:39:41.310Z,18.58
2023-01-12T03:40:41.906Z,18.56
2023-01-12T03:41:42.505Z,18.60
2023-01-12T03:42:43.105Z,18.56
2023-01-12T03:43:43.701Z,18.53
2023-01-12T03:44:44.298Z,18.63
2023-01-12T03:45:44.952Z,18.52
2023-01-12T03:46:45.579Z,18.56
2023-01-12T03:47:46.173Z,18.53
2023-01-12T03:48:46.767Z,18.52
2023-01-12T03:49:47.392Z,18.50
2023-01-12T03:50:47.967Z,18.47
2023-01-12T03:51:48.625Z,18.53
2023-01-12T03:52:49.289Z,18.43
2023-01-12T03:53:49.909Z,18.58
2023-01-12T03:54:50.489Z,18.47
2023-01-12T03:55:51.329Z,18.53
2023-01-12T03:56:51.914Z,18.55
2023-01-12T03:57:52.562Z,18.58
2023-01-12T03:58:53.155Z,18.52
2023-01-12T03:59:53.755Z,18.45
2023-01-12T04:00:54.419Z,18.59
2023-01-12T04:01:55.201Z,18.49
2023-01-12T04:02:55.861Z,18.59
2023-01-12T04:03:56.475Z,18.49
2023-01-12T04:04:57.121Z,18.55
2023-01-12T04:05:57.736Z,18.47
2023-01-12T04:06:59.843Z,18.50
2023-01-12T04:07:59.925Z,18.45
2023-01-12T04:09:00.633Z,18.44
2023-01-12T04:10:01.236Z,18.43
2023-01-12T04:11:01.903Z,18.41
2023-01-12T04:12:02.525Z,18.44
2023-01-12T04:13:03.108Z,18.47
2023-01-12T04:14:03.713Z,18.45
2023-01-12T04:15:04.312Z,18.43
2023-01-12T04:16:05.061Z,18.41
2023-01-12T04:17:05.663Z,18.41
2023-01-12T04:18:06.265Z,18.38
2023-01-12T04:19:06.849Z,18.38
2023-01-12T04:20:07.451Z,18.41
2023-01-12T04:21:08.046Z,18.38
2023-01-12T04:22:09.452Z,18.43
2023-01-12T04:23:10.046Z,18.45
2023-01-12T04:24:10.654Z,18.41
2023-01-12T04:25:11.237Z,18.38
2023-01-12T04:26:11.840Z,18.38
2023-01-12T04:27:12.436Z,18.40
2023-01-12T04:28:13.037Z,18.37
2023-01-12T04:29:13.633Z,18.43
2023-01-12T04:30:14.234Z,18.44
2023-01-12T04:31:14.890Z,18.41
2023-01-12T04:32:15.494Z,18.38
2023-01-12T04:33:16.088Z,18.47
2023-01-12T04:34:16.693Z,18.40
2023-01-12T04:35:17.347Z,18.44
2023-01-12T04:36:17.982Z,18.40
2023-01-12T04:37:18.576Z,18.44
2023-01-12T04:38:19.180Z,18.43
2023-01-12T04:39:19.772Z,18.40
2023-01-12T04:40:20.373Z,18.40
2023-01-12T04:41:20.968Z,18.41
2023-01-12T04:42:21.572Z,18.37
2023-01-12T04:43:22.166Z,18.37
2023-01-12T04:44:22.769Z,18.35
2023-01-12T04:45:23.378Z,18.31
2023-01-12T04:46:23.968Z,18.33
2023-01-12T04:47:24.564Z,18.35
2023-01-12T04:48:25.334Z,18.37
2023-01-12T04:49:25.828Z,18.33
2023-01-12T04:50:26.432Z,18.37
2023-01-12T04:51:27.041Z,18.33
2023-01-12T04:52:27.631Z,18.34
2023-01-12T04:53:28.287Z,18.34
2023-01-12T04:54:28.892Z,18.33
2023-01-12T04:55:29.489Z,18.29
2023-01-12T04:56:30.152Z,18.33
2023-01-12T04:57:30.750Z,18.31
2023-01-12T04:58:31.352Z,18.37
2023-01-12T04:59:32.022Z,18.37
2023-01-12T05:00:32.672Z,18.29
2023-01-12T05:01:34.212Z,18.31
2023-01-12T05:02:34.829Z,18.28
2023-01-12T05:03:35.425Z,18.25
2023-01-12T05:04:36.026Z,18.33
2023-01-12T05:05:36.620Z,18.34
2023-01-12T05:06:37.225Z,18.25
2023-01-12T05:07:37.820Z,18.37
2023-01-12T05:08:38.417Z,18.33
2023-01-12T05:09:39.012Z,18.35
2023-01-12T05:10:39.671Z,18.28
2023-01-12T05:11:40.310Z,18.31
2023-01-12T05:12:40.976Z,18.29
2023-01-12T05:13:41.570Z,18.34
2023-01-12T05:14:42.172Z,18.25
2023-01-12T05:15:42.784Z,18.28
2023-01-12T05:16:43.403Z,18.28
2023-01-12T05:17:44.034Z,18.26
2023-01-12T05:18:44.636Z,18.35
2023-01-12T05:19:45.231Z,18.25
2023-01-12T05:20:45.840Z,18.29
2023-01-12T05:21:46.427Z,18.25
2023-01-12T05:22:47.029Z,18.31
2023-01-12T05:23:47.627Z,18.22
2023-01-12T05:24:48.237Z,18.28
2023-01-12T05:25:48.888Z,18.28
2023-01-12T05:26:49.488Z,18.28
2023-01-12T05:27:50.080Z,18.26
2023-01-12T05:28:50.687Z,18.25
2023-01-12T05:29:51.272Z,18.25
2023-01-12T05:30:51.883Z,18.22
2023-01-12T05:31:52.470Z,18.29
2023-01-12T05:32:53.072Z,18.26
2023-01-12T05:33:53.665Z,18.20
2023-01-12T05:34:54.268Z,18.26
2023-01-12T05:35:54.935Z,18.23
2023-01-12T05:36:55.552Z,18.26
2023-01-12T05:37:56.148Z,18.19
2023-01-12T05:38:56.751Z,18.29
2023-01-12T05:39:57.342Z,18.25
2023-01-12T05:40:57.946Z,18.23
2023-01-12T05:41:58.540Z,18.25
2023-01-12T05:42:59.143Z,18.22
2023-01-12T05:43:59.736Z,18.25
2023-01-12T05:45:00.339Z,18.23
2023-01-12T05:46:00.957Z,18.20
2023-01-12T05:47:01.583Z,18.23
2023-01-12T05:48:02.178Z,18.23
2023-01-12T05:49:02.792Z,18.22
2023-01-12T05:50:03.452Z,18.23
2023-01-12T05:51:04.055Z,18.20
2023-01-12T05:52:04.713Z,18.18
2023-01-12T05:53:05.322Z,18.16
2023-01-12T05:54:05.909Z,18.18
2023-01-12T05:55:06.510Z,18.22
2023-01-12T05:56:07.114Z,18.20
2023-01-12T05:57:07.705Z,18.19
2023-01-12T05:58:08.303Z,18.19
2023-01-12T05:59:08.905Z,18.19
2023-01-12T06:00:09.504Z,18.20
2023-01-12T06:01:10.114Z,18.20
2023-01-12T06:02:11.663Z,18.20
2023-01-12T06:03:12.270Z,18.22
2023-01-12T06:04:12.930Z,18.11
2023-01-12T06:05:13.539Z,18.18
2023-01-12T06:06:14.136Z,18.20
2023-01-12T06:07:14.935Z,18.19
2023-01-12T06:08:15.525Z,18.07
2023-01-12T06:09:16.126Z,18.22
2023-01-12T06:10:16.718Z,18.19
2023-01-12T06:11:17.321Z,18.18
2023-01-12T06:12:17.963Z,18.18
2023-01-12T06:13:18.613Z,18.16
2023-01-12T06:14:19.206Z,18.20
2023-01-12T06:15:19.804Z,18.23
2023-01-12T06:16:20.432Z,18.20
2023-01-12T06:17:21.052Z,18.19
2023-01-12T06:18:21.641Z,18.11
2023-01-12T06:19:22.245Z,18.10
2023-01-12T06:20:22.859Z,18.18
2023-01-12T06:21:23.445Z,18.19
2023-01-12T06:22:24.039Z,18.20
2023-01-12T06:23:35.399Z,18.11
2023-01-12T06:24:27.028Z,18.07
2023-01-12T06:25:27.630Z,18.18
2023-01-12T06:26:28.231Z,18.11
2023-01-12T06:27:28.828Z,18.20
2023-01-12T06:28:29.443Z,18.08
2023-01-12T06:29:30.080Z,18.11
2023-01-12T06:30:31.524Z,18.22
2023-01-12T06:31:32.962Z,18.25
2023-01-12T06:32:33.787Z,18.22
2023-01-12T06:33:34.516Z,18.04
2023-01-12T06:34:35.286Z,18.05
2023-01-12T06:35:36.691Z,18.19
2023-01-12T06:36:37.289Z,18.05
2023-01-12T06:37:37.998Z,18.05
2023-01-12T06:38:38.597Z,18.11
2023-01-12T06:39:39.191Z,18.07
2023-01-12T06:40:39.787Z,18.05
2023-01-12T06:41:40.409Z,18.11
2023-01-12T06:42:40.994Z,18.11
2023-01-12T06:43:41.594Z,18.04
2023-01-12T06:44:42.188Z,18.05
2023-01-12T06:45:42.789Z,18.08
2023-01-12T06:46:43.380Z,18.05
2023-01-12T06:47:43.987Z,18.04
2023-01-12T06:48:44.579Z,18.07
2023-01-12T06:49:45.181Z,18.07
2023-01-12T06:50:46.577Z,18.08
2023-01-12T06:51:47.178Z,18.07
2023-01-12T06:52:47.778Z,18.05
2023-01-12T06:53:48.444Z,18.07
2023-01-12T06:54:49.035Z,18.05
2023-01-12T06:55:49.636Z,18.03
2023-01-12T06:56:50.231Z,18.05
2023-01-12T06:57:50.835Z,18.08
2023-01-12T06:58:51.427Z,18.05
2023-01-12T06:59:52.030Z,18.10
2023-01-12T07:00:52.670Z,18.00
2023-01-12T07:01:53.298Z,18.08
2023-01-12T07:02:53.884Z,17.97
2023-01-12T07:03:54.499Z,18.05
2023-01-12T07:04:55.077Z,17.97
2023-01-12T07:05:55.677Z,18.03
2023-01-12T07:06:56.280Z,17.98
2023-01-12T07:07:56.892Z,18.05
2023-01-12T07:08:57.485Z,17.94
2023-01-12T07:09:58.076Z,17.97
2023-01-12T07:10:58.687Z,18.05
2023-01-12T07:11:59.344Z,18.07
2023-01-12T07:13:00.745Z,18.03
2023-01-12T07:14:01.469Z,17.97
2023-01-12T07:15:02.031Z,18.15
2023-01-12T07:16:02.697Z,18.07
2023-01-12T07:17:03.319Z,18.10
2023-01-12T07:18:03.907Z,18.05
2023-01-12T07:19:04.508Z,18.15
2023-01-12T07:20:05.102Z,18.15
2023-01-12T07:21:05.701Z,18.05
2023-01-12T07:22:06.371Z,18.08
2023-01-12T07:23:06.966Z,18.10
2023-01-12T07:24:07.567Z,18.05
2023-01-12T07:25:08.163Z,18.07
2023-01-12T07:26:08.757Z,18.10
2023-01-12T07:27:09.365Z,18.11
2023-01-12T07:28:10.752Z,18.15
2023-01-12T07:29:11.356Z,18.05
2023-01-12T07:30:11.948Z,18.13
2023-01-12T07:31:12.739Z,18.11
2023-01-12T07:32:13.341Z,18.10
2023-01-12T07:33:15.737Z,18.07
2023-01-12T07:34:16.334Z,18.01
2023-01-12T07:35:16.993Z,18.05
2023-01-12T07:36:17.580Z,18.03
2023-01-12T07:37:18.188Z,17.98
2023-01-12T07:38:18.774Z,18.04
2023-01-12T07:39:20.225Z,18.01
2023-01-12T07:40:21.671Z,18.04
2023-01-12T07:41:22.280Z,17.94
2023-01-12T07:42:22.872Z,18.08
2023-01-12T07:43:23.476Z,18.03
2023-01-12T07:44:24.192Z,18.04
2023-01-12T07:45:24.860Z,18.04
2023-01-12T07:46:25.552Z,17.98
2023-01-12T07:47:26.160Z,18.08
2023-01-12T07:48:26.767Z,17.98
2023-01-12T07:49:27.420Z,17.98
2023-01-12T07:50:28.015Z,18.00
2023-01-12T07:51:28.664Z,18.11
2023-01-12T07:52:29.259Z,18.01
2023-01-12T07:53:29.913Z,18.00
2023-01-12T07:54:30.511Z,17.97
2023-01-12T07:55:31.124Z,17.95
2023-01-12T07:56:31.708Z,17.97
2023-01-12T07:57:32.379Z,17.98
2023-01-12T07:58:32.967Z,18.00
2023-01-12T07:59:33.676Z,18.03
2023-01-12T08:00:34.243Z,18.03
2023-01-12T08:01:34.928Z,17.94
2023-01-12T08:02:35.550Z,18.03
2023-01-12T08:03:36.154Z,17.98
2023-01-12T08:04:36.753Z,17.97
2023-01-12T08:05:37.380Z,18.04
2023-01-12T08:06:37.989Z,17.97
2023-01-12T08:07:38.580Z,17.98
2023-01-12T08:08:39.179Z,17.92
2023-01-12T08:09:39.780Z,17.97
2023-01-12T08:10:40.372Z,18.00
2023-01-12T08:11:40.978Z,17.95
2023-01-12T08:12:41.567Z,18.00
2023-01-12T08:13:42.168Z,17.98
2023-01-12T08:14:42.839Z,18.00
2023-01-12T08:15:43.439Z,17.97
2023-01-12T08:16:44.019Z,17.95
2023-01-12T08:17:44.630Z,17.97
2023-01-12T08:18:45.236Z,18.01
2023-01-12T08:19:45.871Z,18.03
2023-01-12T08:20:46.465Z,17.97
2023-01-12T08:21:47.074Z,17.97
2023-01-12T08:22:47.662Z,18.01
2023-01-12T08:23:48.261Z,17.94
2023-01-12T08:24:48.857Z,18.00
2023-01-12T08:25:49.459Z,17.98
2023-01-12T08:26:50.056Z,17.90
2023-01-12T08:27:50.651Z,17.97
2023-01-12T08:28:51.245Z,18.03
2023-01-12T08:29:51.854Z,18.00
2023-01-12T08:30:52.519Z,17.95
2023-01-12T08:31:53.119Z,17.95
2023-01-12T08:32:53.710Z,17.95
2023-01-12T08:33:54.314Z,17.98
2023-01-12T08:34:54.908Z,17.98
2023-01-12T08:35:55.511Z,18.04
2023-01-12T08:36:56.108Z,18.00
2023-01-12T08:37:56.708Z,18.00
2023-01-12T08:38:57.304Z,17.97
2023-01-12T08:39:57.917Z,18.05
2023-01-12T08:40:58.500Z,17.94
2023-01-12T08:41:59.144Z,18.03
2023-01-12T08:42:59.741Z,17.98
2023-01-12T08:44:00.376Z,18.03
2023-01-12T08:45:00.961Z,17.95
2023-01-12T08:46:01.730Z,18.01
2023-01-12T08:47:02.384Z,17.92
2023-01-12T08:48:02.987Z,17.95
2023-01-12T08:49:03.581Z,18.01
2023-01-12T08:50:04.227Z,17.98
2023-01-12T08:51:04.883Z,17.94
2023-01-12T08:52:05.649Z,17.92
2023-01-12T08:53:06.421Z,18.04
2023-01-12T08:54:07.882Z,18.03
2023-01-12T08:55:08.538Z,18.00
2023-01-12T08:56:09.333Z,17.98
2023-01-12T08:57:09.936Z,17.94
2023-01-12T08:58:10.533Z,18.03
2023-01-12T08:59:11.128Z,17.90
2023-01-12T09:00:11.748Z,17.98
2023-01-12T09:01:12.540Z,18.00
2023-01-12T09:02:13.277Z,17.92
2023-01-12T09:03:13.937Z,17.97
2023-01-12T09:04:14.544Z,17.89
2023-01-12T09:05:15.133Z,17.98
2023-01-12T09:06:15.736Z,17.94
2023-01-12T09:07:16.329Z,17.92
2023-01-12T09:08:16.938Z,17.89
2023-01-12T09:09:17.524Z,17.83
2023-01-12T09:10:18.133Z,17.92
2023-01-12T09:11:18.718Z,17.92
2023-01-12T09:12:19.325Z,17.94
2023-01-12T09:13:19.921Z,17.98
2023-01-12T09:14:21.379Z,17.90
2023-01-12T09:15:21.971Z,17.87
2023-01-12T09:16:22.601Z,17.83
2023-01-12T09:17:23.231Z,17.85
2023-01-12T09:18:23.830Z,17.90
2023-01-12T09:19:24.450Z,17.87
2023-01-12T09:20:25.053Z,17.90
2023-01-12T09:21:25.646Z,17.89
2023-01-12T09:22:26.266Z,17.85
2023-01-12T09:23:26.881Z,17.85
2023-01-12T09:24:27.498Z,17.86
2023-01-12T09:25:28.093Z,17.85
2023-01-12T09:26:28.687Z,17.86
2023-01-12T09:27:29.290Z,17.87
2023-01-12T09:28:29.888Z,17.90
2023-01-12T09:29:30.483Z,17.94
2023-01-12T09:30:31.190Z,17.80
2023-01-12T09:31:31.764Z,17.80
2023-01-12T09:32:36.696Z,17.87
2023-01-12T09:33:33.958Z,17.86
2023-01-12T09:34:34.597Z,17.87
2023-01-12T09:35:35.227Z,17.85
2023-01-12T09:36:35.828Z,17.83
2023-01-12T09:37:36.419Z,17.89
2023-01-12T09:38:37.025Z,17.92
2023-01-12T09:39:37.615Z,17.87
2023-01-12T09:40:38.284Z,17.83
2023-01-12T09:41:38.950Z,17.89
2023-01-12T09:42:39.616Z,17.83
2023-01-12T09:43:40.205Z,17.83
2023-01-12T09:44:40.807Z,17.83
2023-01-12T09:45:41.482Z,17.90
2023-01-12T09:46:42.140Z,17.90
2023-01-12T09:47:42.782Z,17.85
2023-01-12T09:48:43.384Z,17.95
2023-01-12T09:49:43.975Z,17.92
2023-01-12T09:50:44.577Z,17.86
2023-01-12T09:51:45.176Z,17.87
2023-01-12T09:52:45.777Z,17.86
2023-01-12T09:53:47.501Z,17.85
2023-01-12T09:54:48.014Z,17.86
2023-01-12T09:55:48.658Z,17.83
2023-01-12T09:56:49.260Z,17.85
2023-01-12T09:57:49.871Z,17.82
2023-01-12T09:58:50.455Z,17.83
2023-01-12T09:59:51.169Z,17.76
2023-01-12T10:00:52.077Z,17.82
2023-01-12T10:01:52.840Z,17.82
2023-01-12T10:02:53.512Z,17.85
2023-01-12T10:03:54.111Z,17.87
2023-01-12T10:04:54.714Z,17.83
2023-01-12T10:05:55.309Z,17.89
2023-01-12T10:06:55.911Z,17.80
2023-01-12T10:07:56.516Z,17.82
2023-01-12T10:08:57.131Z,17.82
2023-01-12T10:09:57.725Z,17.82
2023-01-12T10:10:58.326Z,17.78
2023-01-12T10:11:58.923Z,17.78
2023-01-12T10:13:00.071Z,17.85
2023-01-12T10:14:00.727Z,17.82
2023-01-12T10:15:01.316Z,17.86
2023-01-12T10:16:02.001Z,17.86
2023-01-12T10:17:02.600Z,17.80
2023-01-12T10:18:03.285Z,17.86
2023-01-12T10:19:03.888Z,17.86
2023-01-12T10:20:04.546Z,17.79
2023-01-12T10:21:05.139Z,17.82
2023-01-12T10:22:07.214Z,17.83
2023-01-12T10:23:06.397Z,17.94
2023-01-12T10:24:06.994Z,17.86
2023-01-12T10:25:07.597Z,17.83
2023-01-12T10:26:08.267Z,17.86
2023-01-12T10:27:08.867Z,17.85
2023-01-12T10:28:09.459Z,17.87
2023-01-12T10:29:10.073Z,17.87
2023-01-12T10:30:10.661Z,17.83
2023-01-12T10:31:11.374Z,17.85
2023-01-12T10:32:11.923Z,17.83
2023-01-12T10:33:13.375Z,17.94
2023-01-12T10:34:13.980Z,17.82
2023-01-12T10:35:14.576Z,17.83
2023-01-12T10:36:15.241Z,17.80
2023-01-12T10:37:15.847Z,17.83
2023-01-12T10:38:16.439Z,17.79
2023-01-12T10:39:17.044Z,17.78
2023-01-12T10:40:17.706Z,17.86
2023-01-12T10:41:18.364Z,17.89
2023-01-12T10:42:18.959Z,17.86
2023-01-12T10:43:20.501Z,17.82
2023-01-12T10:44:21.147Z,17.86
2023-01-12T10:45:21.756Z,17.80
2023-01-12T10:46:22.408Z,17.79
2023-01-12T10:47:23.012Z,17.83
2023-01-12T10:48:23.604Z,17.89
2023-01-12T10:49:24.209Z,17.86
2023-01-12T10:50:24.827Z,17.83
2023-01-12T10:51:25.417Z,17.83
2023-01-12T10:52:26.055Z,17.79
2023-01-12T10:53:27.529Z,17.82
2023-01-12T10:54:28.112Z,17.79
2023-01-12T10:55:28.714Z,17.86
2023-01-12T10:56:29.307Z,17.82
2023-01-12T10:57:29.958Z,17.90
2023-01-12T10:58:30.554Z,17.80
2023-01-12T10:59:31.159Z,17.86
2023-01-12T11:00:31.799Z,17.83
2023-01-12T11:01:32.476Z,17.82
2023-01-12T11:02:33.148Z,17.82
2023-01-12T11:03:33.752Z,17.79
2023-01-12T11:04:34.462Z,17.78
2023-01-12T11:05:35.063Z,17.83
2023-01-12T11:06:35.656Z,17.83
2023-01-12T11:07:36.304Z,17.80
2023-01-12T11:08:36.900Z,17.85
2023-01-12T11:09:37.501Z,17.82
2023-01-12T11:10:38.095Z,17.85
2023-01-12T11:11:38.699Z,17.86
2023-01-12T11:12:39.290Z,17.74
2023-01-12T11:13:40.702Z,17.86
2023-01-12T11:14:41.283Z,17.79
2023-01-12T11:15:41.884Z,17.85
2023-01-12T11:16:42.501Z,17.86
2023-01-12T11:17:43.084Z,17.86
2023-01-12T11:18:43.679Z,17.82
2023-01-12T11:19:44.278Z,17.87
2023-01-12T11:20:44.876Z,17.83
2023-01-12T11:21:45.475Z,17.79
2023-01-12T11:22:46.067Z,17.76
2023-01-12T11:23:46.673Z,17.85
2023-01-12T11:24:47.266Z,17.79
2023-01-12T11:25:47.868Z,17.76
2023-01-12T11:26:48.526Z,17.78
2023-01-12T11:27:49.269Z,17.83
2023-01-12T11:28:49.885Z,17.82
2023-01-12T11:29:50.537Z,17.85
2023-01-12T11:30:51.164Z,17.82
2023-01-12T11:31:51.799Z,17.78
2023-01-12T11:32:52.462Z,17.79
2023-01-12T11:33:53.059Z,17.79
2023-01-12T11:34:53.660Z,17.82
2023-01-12T11:35:54.256Z,17.82
2023-01-12T11:36:54.921Z,17.79
2023-01-12T11:37:55.517Z,17.82
2023-01-12T11:38:56.121Z,17.78
2023-01-12T11:39:56.709Z,17.74
2023-01-12T11:40:57.309Z,17.71
2023-01-12T11:41:57.902Z,17.78
2023-01-12T11:42:58.506Z,17.78
2023-01-12T11:43:59.120Z,17.79
2023-01-12T11:44:59.702Z,17.74
2023-01-12T11:46:00.334Z,17.76
2023-01-12T11:47:00.946Z,17.79
2023-01-12T11:48:01.534Z,17.68
2023-01-12T11:49:02.140Z,17.76
2023-01-12T11:50:02.720Z,17.76
2023-01-12T11:51:03.325Z,17.74
2023-01-12T11:52:03.936Z,17.68
2023-01-12T11:53:04.518Z,17.79
2023-01-12T11:54:05.163Z,17.72
2023-01-12T11:55:05.763Z,17.78
2023-01-12T11:56:06.438Z,17.72
2023-01-12T11:57:07.031Z,17.78
2023-01-12T11:58:07.621Z,17.70
2023-01-12T11:59:08.225Z,17.72
2023-01-12T12:00:08.819Z,17.76
2023-01-12T12:01:10.364Z,17.79
2023-01-12T12:02:11.044Z,17.76
2023-01-12T12:03:11.644Z,17.71
2023-01-12T12:04:12.243Z,17.78
2023-01-12T12:05:12.847Z,17.72
2023-01-12T12:06:13.473Z,17.72
2023-01-12T12:07:14.092Z,17.70
2023-01-12T12:08:14.683Z,17.76
2023-01-12T12:09:15.338Z,17.72
2023-01-12T12:10:16.733Z,17.79
2023-01-12T12:11:17.333Z,17.70
2023-01-12T12:12:17.934Z,17.68
2023-01-12T12:13:18.683Z,17.76
2023-01-12T12:14:19.286Z,17.72
2023-01-12T12:15:19.887Z,17.74
2023-01-12T12:16:20.482Z,17.74
2023-01-12T12:17:21.088Z,17.74
2023-01-12T12:18:21.685Z,17.67
2023-01-12T12:19:22.319Z,17.74
2023-01-12T12:20:22.898Z,17.71
2023-01-12T12:21:23.502Z,17.76
2023-01-12T12:22:24.096Z,17.85
2023-01-12T12:23:24.700Z,17.74
2023-01-12T12:24:25.295Z,17.76
2023-01-12T12:25:25.899Z,17.70
2023-01-12T12:26:26.495Z,17.74
2023-01-12T12:27:27.096Z,17.70
2023-01-12T12:28:27.763Z,17.74
2023-01-12T12:29:28.363Z,17.74
2023-01-12T12:30:29.809Z,17.74
2023-01-12T12:31:30.480Z,17.79
2023-01-12T12:32:31.919Z,17.80
2023-01-12T12:33:32.624Z,17.71
2023-01-12T12:34:33.219Z,17.76
2023-01-12T12:35:34.670Z,17.70
2023-01-12T12:36:35.335Z,17.79
2023-01-12T12:37:35.942Z,17.76
2023-01-12T12:38:36.532Z,17.76
2023-01-12T12:39:37.184Z,17.74
2023-01-12T12:40:37.783Z,17.71
2023-01-12T12:41:39.760Z,17.72
2023-01-12T12:42:39.048Z,17.76
2023-01-12T12:43:39.651Z,17.78
2023-01-12T12:44:40.240Z,17.71
2023-01-12T12:45:40.844Z,17.72
2023-01-12T12:46:41.431Z,17.71
2023-01-12T12:47:42.337Z,17.76
2023-01-12T12:48:42.701Z,17.72
2023-01-12T12:49:43.299Z,17.70
2023-01-12T12:50:43.901Z,17.80
2023-01-12T12:51:44.501Z,17.71
2023-01-12T12:52:45.094Z,17.79
2023-01-12T12:53:45.696Z,17.67
2023-01-12T12:54:46.289Z,17.74
2023-01-12T12:55:46.892Z,17.65
2023-01-12T12:56:47.488Z,17.71
2023-01-12T12:57:48.248Z,17.74
2023-01-12T12:58:48.833Z,17.74
2023-01-12T12:59:51.906Z,17.79
2023-01-12T13:00:50.210Z,17.76
2023-01-12T13:01:50.856Z,17.76